Time;durP1;ratioP1;P1;durP2;ratioP2;P2;SDS_P1;SDS_P2;PMS_P1;PMS_P2;Temp;Humidity;BMP_temperature;BMP_pressure;BME280_temperature;BME280_humidity;BME280_pressure;Samples;Min_cycle;Max_cycle;Signal;HPM_P1;HPM_P2
2020/12/31 00:00:57;;;;;;;;;;;;;;;-2.94;93.72;92104.47;1064068;55;20165;-83
2020/12/31 00:01:58;;;;;;;;;;;;;;;-2.95;94.48;92099.59;1066244;55;20257;-84
2020/12/31 00:02:58;;;;;;;;;;;;;;;-2.99;93.70;92106.63;1066334;55;20702;-84
2020/12/31 00:03:59;;;;;;;;;;;;;;;-2.98;93.77;92101.06;1064035;55;20606;-84
2020/12/31 00:04:59;;;;;;;;;;;;;;;-3.02;93.87;92102.13;1064129;55;20166;-84
2020/12/31 00:05:59;;;;;;;;;;;;;;;-3.00;93.23;92099.91;1066287;55;20162;-84
2020/12/31 00:07:00;;;;;;;;;;;;;;;-3.02;93.63;92092.44;1066335;55;21122;-84
2020/12/31 00:08:00;;;;;;;;;;;;;;;-3.08;94.17;92091.22;1066149;55;20180;-83
2020/12/31 00:09:01;;;;;;;;;;;;;;;-3.16;93.89;92100.84;1062072;56;20146;-82
2020/12/31 00:10:02;;;;;;;;;;;;;;;-3.24;94.29;92091.41;1064131;55;20621;-83
2020/12/31 00:11:02;;;;;;;;;;;;;;;-3.22;93.52;92096.28;1066273;55;20157;-83
2020/12/31 00:12:03;;;;;;;;;;;;;;;-3.26;94.48;92092.88;1064239;55;20162;-84
2020/12/31 00:13:04;;;;;;;;;;;;;;;-3.26;94.27;92095.47;1061947;56;20162;-83
2020/12/31 00:14:07;;;;;;;;;;;;;;;-3.28;95.21;92093.22;1062139;56;20173;-83
2020/12/31 00:15:08;;;;;;;;;;;;;;;-3.31;95.26;92091.31;1064122;55;20201;-83
2020/12/31 00:16:10;;;;;;;;;;;;;;;-3.33;94.88;92090.94;1066361;55;20200;-83
2020/12/31 00:17:10;;;;;;;;;;;;;;;-3.39;94.67;92090.47;1066328;55;20601;-83
2020/12/31 00:18:11;;;;;;;;;;;;;;;-3.54;94.08;92078.34;1066499;55;20184;-83
2020/12/31 00:19:13;;;;;;;;;;;;;;;-3.52;95.19;92093.62;1066285;55;20173;-84
2020/12/31 00:20:14;;;;;;;;;;;;;;;-3.57;94.29;92079.78;1064045;55;20150;-83
2020/12/31 00:21:14;;;;;;;;;;;;;;;-3.57;94.64;92079.78;1066346;55;20262;-84
2020/12/31 00:22:15;;;;;;;;;;;;;;;-3.61;95.57;92076.38;1068761;55;20153;-83
2020/12/31 00:23:15;;;;;;;;;;;;;;;-3.57;95.94;92092.09;1066489;55;20161;-83
2020/12/31 00:24:16;;;;;;;;;;;;;;;-3.72;94.95;92088.53;1064106;55;20158;-85
2020/12/31 00:25:16;;;;;;;;;;;;;;;-3.68;94.81;92086.72;1066133;55;20566;-85
2020/12/31 00:26:17;;;;;;;;;;;;;;;-3.74;94.05;92084.75;1066113;55;20173;-83
2020/12/31 00:27:17;;;;;;;;;;;;;;;-3.73;94.36;92083.66;1063864;55;20157;-83
2020/12/31 00:28:18;;;;;;;;;;;;;;;-3.83;94.64;92082.41;1063965;55;20189;-84
2020/12/31 00:29:19;;;;;;;;;;;;;;;-3.90;95.06;92075.22;1066176;55;20250;-84
2020/12/31 00:30:21;;;;;;;;;;;;;;;-3.88;94.34;92080.09;1068434;55;20216;-83
2020/12/31 00:31:21;;;;;;;;;;;;;;;-3.89;94.41;92079.34;1063949;55;20206;-82
2020/12/31 00:32:22;;;;;;;;;;;;;;;-3.73;95.09;92081.03;1061929;56;20196;-84
2020/12/31 00:33:22;;;;;;;;;;;;;;;-3.83;93.93;92080.53;1066261;55;20266;-82
2020/12/31 00:34:24;;;;;;;;;;;;;;;-3.92;93.81;92080.03;1068362;55;20225;-82
2020/12/31 00:35:27;;;;;;;;;;;;;;;-3.90;93.88;92079.69;1064028;55;20142;-82
2020/12/31 00:36:27;;;;;;;;;;;;;;;-3.94;93.90;92084.09;1064090;55;20162;-82
2020/12/31 00:37:32;;;;;;;;;;;;;;;-4.02;94.06;92085.09;1063900;55;20221;-83
2020/12/31 00:38:32;;;;;;;;;;;;;;;-4.03;94.94;92081.75;1066368;55;20160;-84
2020/12/31 00:39:34;;;;;;;;;;;;;;;-4.07;95.09;92086.16;1066033;55;20270;-83
2020/12/31 00:40:35;;;;;;;;;;;;;;;-4.03;95.27;92086.97;1063985;55;20150;-83
2020/12/31 00:41:35;;;;;;;;;;;;;;;-4.00;95.39;92085.47;1061845;56;20154;-82
2020/12/31 00:42:36;;;;;;;;;;;;;;;-4.00;95.22;92082.87;1061943;56;20654;-82
2020/12/31 00:43:36;;;;;;;;;;;;;;;-4.05;94.51;92087.28;1063954;55;20185;-83
2020/12/31 00:44:37;;;;;;;;;;;;;;;-3.97;94.65;92087.41;1063964;55;20271;-85
2020/12/31 00:45:37;;;;;;;;;;;;;;;-3.86;95.10;92083.88;1064071;55;20188;-84
2020/12/31 00:46:38;;;;;;;;;;;;;;;-3.83;93.61;92085.00;1061885;56;20162;-87
2020/12/31 00:47:39;;;;;;;;;;;;;;;-3.82;93.55;92086.50;1061869;56;20602;-82
2020/12/31 00:48:40;;;;;;;;;;;;;;;-3.82;93.91;92081.28;1065923;55;20233;-86
2020/12/31 00:49:41;;;;;;;;;;;;;;;-3.90;93.91;92087.53;1066276;55;20161;-82
2020/12/31 00:50:42;;;;;;;;;;;;;;;-3.74;94.86;92085.50;1066212;55;20567;-83
2020/12/31 00:51:46;;;;;;;;;;;;;;;-3.76;94.02;92081.75;1063990;55;20161;-87
2020/12/31 00:52:47;;;;;;;;;;;;;;;-3.72;94.43;92080.69;1061960;55;20151;-82
2020/12/31 00:53:47;;;;;;;;;;;;;;;-3.72;93.55;92078.09;1063995;55;20154;-83
2020/12/31 00:54:48;;;;;;;;;;;;;;;-3.76;93.53;92079.91;1066094;55;20157;-83
2020/12/31 00:55:48;;;;;;;;;;;;;;;-3.82;94.50;92079.44;1066079;55;20620;-82
2020/12/31 00:56:48;;;;;;;;;;;;;;;-3.87;94.67;92074.50;1061798;56;20181;-82
2020/12/31 00:57:49;;;;;;;;;;;;;;;-3.86;94.58;92076.03;1061724;56;20661;-84
2020/12/31 00:58:49;;;;;;;;;;;;;;;-3.80;94.40;92072.00;1066155;55;20641;-84
2020/12/31 00:59:50;;;;;;;;;;;;;;;-3.90;94.44;92079.69;1065994;55;20189;-83
2020/12/31 01:00:50;;;;;;;;;;;;;;;-3.97;93.75;92077.72;1064042;55;20170;-82
2020/12/31 01:01:52;;;;;;;;;;;;;;;-4.07;93.58;92078.31;1065723;55;20656;-84
2020/12/31 01:02:53;;;;;;;;;;;;;;;-4.08;95.02;92074.22;1068288;55;20168;-83
2020/12/31 01:03:54;;;;;;;;;;;;;;;-4.06;94.76;92077.97;1065808;55;20181;-82
2020/12/31 01:04:54;;;;;;;;;;;;;;;-4.25;94.72;92072.81;1063486;55;20173;-81
2020/12/31 01:05:55;;;;;;;;;;;;;;;-4.22;94.75;92072.09;1065778;55;20654;-83
2020/12/31 01:06:55;;;;;;;;;;;;;;;-4.24;94.97;92068.34;1063511;55;20158;-84
2020/12/31 01:07:56;;;;;;;;;;;;;;;-4.37;94.46;92067.78;1063576;55;20181;-87
2020/12/31 01:08:56;;;;;;;;;;;;;;;-4.40;94.53;92064.00;1065704;55;20176;-84
2020/12/31 01:09:57;;;;;;;;;;;;;;;-4.35;94.68;92068.16;1061421;56;20151;-84
2020/12/31 01:10:57;;;;;;;;;;;;;;;-4.35;95.29;92076.00;1063556;55;20299;-82
2020/12/31 01:11:58;;;;;;;;;;;;;;;-4.38;95.51;92074.09;1068108;55;20587;-82
2020/12/31 01:12:59;;;;;;;;;;;;;;;-4.37;94.63;92067.78;1065730;55;20261;-83
2020/12/31 01:13:59;;;;;;;;;;;;;;;-4.41;94.59;92065.09;1063779;55;20271;-83
2020/12/31 01:15:00;;;;;;;;;;;;;;;-4.46;94.28;92062.78;1065864;55;20161;-83
2020/12/31 01:16:00;;;;;;;;;;;;;;;-4.47;94.75;92069.13;1065794;55;20191;-82
2020/12/31 01:17:01;;;;;;;;;;;;;;;-4.47;94.04;92069.13;1065781;55;20188;-84
2020/12/31 01:18:01;;;;;;;;;;;;;;;-4.43;94.09;92069.19;1068185;55;20248;-83
2020/12/31 01:19:02;;;;;;;;;;;;;;;-4.54;93.98;92071.59;1065746;55;20153;-84
2020/12/31 01:20:03;;;;;;;;;;;;;;;-4.72;94.06;92078.34;1061439;56;20166;-83
2020/12/31 01:21:10;;;;;;;;;;;;;;;-4.74;94.63;92081.31;1063655;55;20158;-83
2020/12/31 01:22:11;;;;;;;;;;;;;;;-4.72;94.80;92075.75;1067893;55;20165;-82
2020/12/31 01:23:11;;;;;;;;;;;;;;;-4.70;94.59;92081.34;1065758;55;20157;-83
2020/12/31 01:24:13;;;;;;;;;;;;;;;-4.73;95.07;92071.63;1061523;56;20600;-84
2020/12/31 01:25:13;;;;;;;;;;;;;;;-4.78;95.24;92075.28;1063701;55;21199;-84
2020/12/31 01:26:14;;;;;;;;;;;;;;;-4.78;95.07;92071.91;1065901;55;20240;-83
2020/12/31 01:27:14;;;;;;;;;;;;;;;-4.72;94.91;92075.75;1065854;55;20302;-84
2020/12/31 01:28:14;;;;;;;;;;;;;;;-4.74;94.48;92077.94;1065599;55;21152;-83
2020/12/31 01:29:15;;;;;;;;;;;;;;;-4.72;94.20;92067.91;1063475;55;21167;-83
2020/12/31 01:30:15;;;;;;;;;;;;;;;-4.74;93.63;92075.31;1065733;55;20149;-83
2020/12/31 01:31:16;;;;;;;;;;;;;;;-4.82;94.35;92067.37;1065554;55;20724;-83
2020/12/31 01:32:20;;;;;;;;;;;;;;;-4.93;94.69;92071.66;1065621;55;20318;-83
2020/12/31 01:33:21;;;;;;;;;;;;;;;-4.93;94.82;92079.47;1063695;55;20161;-83
2020/12/31 01:34:22;;;;;;;;;;;;;;;-4.92;94.81;92072.41;1061374;55;20622;-83
2020/12/31 01:35:22;;;;;;;;;;;;;;;-5.01;94.84;92075.22;1065782;55;20808;-83
2020/12/31 01:36:23;;;;;;;;;;;;;;;-5.08;94.57;92064.69;1065656;55;21197;-83
2020/12/31 01:37:24;;;;;;;;;;;;;;;-5.13;94.76;92070.16;1063550;55;20154;-83
2020/12/31 01:38:24;;;;;;;;;;;;;;;-5.10;95.08;92072.81;1063574;55;20555;-82
2020/12/31 01:39:25;;;;;;;;;;;;;;;-5.16;93.71;92074.19;1063559;55;20177;-82
2020/12/31 01:40:25;;;;;;;;;;;;;;;-5.17;94.11;92069.34;1063611;55;20654;-84
2020/12/31 01:41:26;;;;;;;;;;;;;;;-5.12;94.01;92077.62;1063548;55;20185;-83
2020/12/31 01:42:26;;;;;;;;;;;;;;;-5.16;93.95;92076.06;1061359;56;20178;-84
2020/12/31 01:43:27;;;;;;;;;;;;;;;-5.32;94.24;92081.31;1063493;55;20248;-84
2020/12/31 01:44:27;;;;;;;;;;;;;;;-5.31;94.54;92075.03;1063513;55;20177;-83
2020/12/31 01:45:28;;;;;;;;;;;;;;;-5.29;95.55;92080.63;1063515;55;20627;-84
2020/12/31 01:46:31;;;;;;;;;;;;;;;-5.31;95.09;92077.62;1063609;55;20157;-85
2020/12/31 01:47:31;;;;;;;;;;;;;;;-5.21;95.78;92074.47;1061476;55;20194;-83
2020/12/31 01:48:32;;;;;;;;;;;;;;;-5.08;96.20;92077.69;1063508;55;20192;-83
2020/12/31 01:49:33;;;;;;;;;;;;;;;-5.03;96.25;92082.63;1065805;55;20169;-83
2020/12/31 01:50:33;;;;;;;;;;;;;;;-4.96;96.50;92080.16;1063456;55;20197;-83
2020/12/31 01:51:34;;;;;;;;;;;;;;;-4.86;96.33;92069.19;1063573;55;20189;-84
2020/12/31 01:52:36;;;;;;;;;;;;;;;-4.76;95.82;92075.69;1063595;55;20169;-83
2020/12/31 01:53:37;;;;;;;;;;;;;;;-4.83;95.79;92067.72;1063546;55;20677;-82
2020/12/31 01:54:37;;;;;;;;;;;;;;;-4.86;95.74;92073.63;1063496;55;20217;-84
2020/12/31 01:55:38;;;;;;;;;;;;;;;-4.74;95.78;92067.50;1063492;55;20251;-84
2020/12/31 01:56:41;;;;;;;;;;;;;;;-4.69;95.89;92068.00;1065700;55;20184;-83
2020/12/31 01:57:42;;;;;;;;;;;;;;;-4.65;95.54;92063.59;1065592;55;21107;-85
2020/12/31 01:58:43;;;;;;;;;;;;;;;-4.62;95.93;92068.09;1063578;55;21104;-83
2020/12/31 01:59:45;;;;;;;;;;;;;;;-4.53;97.20;92073.09;1063532;55;20165;-83
2020/12/31 02:00:46;;;;;;;;;;;;;;;-4.52;96.47;92069.41;1063470;55;20150;-83
2020/12/31 02:01:47;;;;;;;;;;;;;;;-4.44;96.39;92062.44;1063592;55;20157;-84
2020/12/31 02:02:47;;;;;;;;;;;;;;;-4.41;96.12;92065.09;1061427;56;20166;-83
2020/12/31 02:03:49;;;;;;;;;;;;;;;-4.38;95.53;92067.03;1063711;55;20255;-84
2020/12/31 02:04:52;;;;;;;;;;;;;;;-4.33;96.07;92063.38;1065686;55;20224;-84
2020/12/31 02:05:52;;;;;;;;;;;;;;;-4.28;96.28;92068.28;1065839;55;20567;-83
2020/12/31 02:06:53;;;;;;;;;;;;;;;-4.28;95.80;92059.72;1065798;55;20158;-84
2020/12/31 02:07:54;;;;;;;;;;;;;;;-4.25;95.91;92061.63;1063586;55;20180;-83
2020/12/31 02:08:54;;;;;;;;;;;;;;;-4.32;95.83;92059.66;1063544;55;20173;-82
2020/12/31 02:09:55;;;;;;;;;;;;;;;-4.18;95.58;92067.69;1061415;56;20154;-83
2020/12/31 02:10:55;;;;;;;;;;;;;;;-4.21;96.09;92060.59;1063714;55;20741;-84
2020/12/31 02:12:00;;;;;;;;;;;;;;;-4.15;95.04;92055.81;1063531;55;20237;-84
2020/12/31 02:13:01;;;;;;;;;;;;;;;-4.10;94.98;92053.66;1065872;55;20181;-83
2020/12/31 02:14:02;;;;;;;;;;;;;;;-4.02;94.49;92057.13;1063410;56;20169;-83
2020/12/31 02:15:05;;;;;;;;;;;;;;;-4.06;94.00;92051.87;1063747;55;20153;-83
2020/12/31 02:16:09;;;;;;;;;;;;;;;-4.08;94.13;92051.47;1065820;55;20161;-83
2020/12/31 02:17:12;;;;;;;;;;;;;;;-4.13;93.33;92049.13;1063564;55;20218;-84
2020/12/31 02:18:12;;;;;;;;;;;;;;;-4.29;93.92;92048.53;1065747;55;20165;-81
2020/12/31 02:19:14;;;;;;;;;;;;;;;-4.28;94.32;92047.44;1065731;55;20149;-82
2020/12/31 02:20:15;;;;;;;;;;;;;;;-4.17;94.70;92044.97;1065718;55;20150;-82
2020/12/31 02:21:18;;;;;;;;;;;;;;;-4.17;94.98;92048.34;1065662;55;20582;-84
2020/12/31 02:22:20;;;;;;;;;;;;;;;-4.17;93.82;92055.41;1065779;55;20166;-83
2020/12/31 02:23:21;;;;;;;;;;;;;;;-4.27;93.60;92048.19;1067804;55;20172;-83
2020/12/31 02:24:21;;;;;;;;;;;;;;;-4.32;94.07;92044.00;1067945;55;20188;-84
2020/12/31 02:25:22;;;;;;;;;;;;;;;-4.35;94.98;92049.91;1063553;55;20177;-83
2020/12/31 02:26:25;;;;;;;;;;;;;;;-4.38;95.59;92045.41;1063698;55;20243;-85
2020/12/31 02:27:25;;;;;;;;;;;;;;;-4.42;94.92;92042.00;1065685;55;20233;-85
2020/12/31 02:28:26;;;;;;;;;;;;;;;-4.44;95.50;92041.56;1063367;55;20185;-83
2020/12/31 02:29:27;;;;;;;;;;;;;;;-4.55;95.14;92041.41;1065606;55;20166;-82
2020/12/31 02:30:30;;;;;;;;;;;;;;;-4.58;95.31;92037.63;1065706;55;20293;-84
2020/12/31 02:31:30;;;;;;;;;;;;;;;-4.63;95.58;92037.91;1063592;55;20165;-83
2020/12/31 02:32:31;;;;;;;;;;;;;;;-4.60;94.71;92044.31;1065756;55;20290;-83
2020/12/31 02:33:31;;;;;;;;;;;;;;;-4.67;94.36;92036.34;1067957;55;20184;-85
2020/12/31 02:34:32;;;;;;;;;;;;;;;-4.73;94.35;92038.50;1065631;55;20172;-84
2020/12/31 02:35:32;;;;;;;;;;;;;;;-4.64;95.04;92039.03;1063436;55;20975;-84
2020/12/31 02:36:34;;;;;;;;;;;;;;;-4.78;95.21;92038.78;1063598;55;20216;-83
2020/12/31 02:37:34;;;;;;;;;;;;;;;-4.92;95.03;92047.09;1065639;55;20161;-83
2020/12/31 02:38:35;;;;;;;;;;;;;;;-4.81;96.28;92045.44;1065584;55;20149;-82
2020/12/31 02:39:35;;;;;;;;;;;;;;;-4.87;95.96;92043.47;1063416;55;20176;-83
2020/12/31 02:40:36;;;;;;;;;;;;;;;-4.92;95.88;92035.91;1065728;55;20162;-83
2020/12/31 02:41:37;;;;;;;;;;;;;;;-4.91;96.33;92047.88;1067825;55;20210;-83
2020/12/31 02:42:37;;;;;;;;;;;;;;;-4.94;96.21;92038.88;1067741;55;20310;-82
2020/12/31 02:43:38;;;;;;;;;;;;;;;-4.95;96.42;92039.97;1063336;55;20692;-83
2020/12/31 02:44:38;;;;;;;;;;;;;;;-4.97;96.52;92044.00;1065606;55;20165;-85
2020/12/31 02:45:40;;;;;;;;;;;;;;;-4.98;96.16;92037.31;1068202;55;20653;-85
2020/12/31 02:46:41;;;;;;;;;;;;;;;-5.03;95.95;92042.81;1063479;55;20149;-84
2020/12/31 02:47:42;;;;;;;;;;;;;;;-4.99;96.63;92043.63;1063551;55;20189;-84
2020/12/31 02:48:43;;;;;;;;;;;;;;;-5.08;96.56;92041.22;1063390;55;20184;-83
2020/12/31 02:49:44;;;;;;;;;;;;;;;-5.14;96.80;92040.72;1063479;55;20173;-83
2020/12/31 02:50:44;;;;;;;;;;;;;;;-5.12;96.62;92045.63;1063327;55;20157;-85
2020/12/31 02:51:45;;;;;;;;;;;;;;;-5.14;96.25;92039.97;1061368;56;20172;-84
2020/12/31 02:52:45;;;;;;;;;;;;;;;-5.14;96.47;92032.16;1063525;55;20705;-82
2020/12/31 02:53:46;;;;;;;;;;;;;;;-5.22;96.40;92036.50;1067842;55;20179;-83
2020/12/31 02:54:47;;;;;;;;;;;;;;;-5.15;95.82;92034.03;1065591;55;20638;-85
2020/12/31 02:55:47;;;;;;;;;;;;;;;-5.19;96.39;92035.06;1065527;55;20161;-83
2020/12/31 02:56:48;;;;;;;;;;;;;;;-5.20;96.82;92033.56;1068058;55;20172;-84
2020/12/31 02:57:48;;;;;;;;;;;;;;;-5.32;96.44;92024.03;1065536;55;20161;-84
2020/12/31 02:58:49;;;;;;;;;;;;;;;-5.24;97.00;92030.88;1063431;55;20197;-83
2020/12/31 02:59:50;;;;;;;;;;;;;;;-5.26;96.73;92022.66;1065753;55;20196;-84
2020/12/31 03:00:50;;;;;;;;;;;;;;;-5.33;96.78;92028.47;1068181;55;20141;-83
2020/12/31 03:01:52;;;;;;;;;;;;;;;-5.29;96.81;92025.94;1068162;55;20157;-83
2020/12/31 03:02:53;;;;;;;;;;;;;;;-5.30;96.98;92024.44;1065557;55;20189;-83
2020/12/31 03:03:53;;;;;;;;;;;;;;;-5.34;97.26;92026.22;1065582;55;20201;-82
2020/12/31 03:04:55;;;;;;;;;;;;;;;-5.32;97.22;92029.97;1065535;55;20645;-85
2020/12/31 03:05:56;;;;;;;;;;;;;;;-5.27;97.44;92026.34;1065590;55;20170;-82
2020/12/31 03:06:56;;;;;;;;;;;;;;;-5.19;97.51;92022.78;1063359;55;20784;-83
2020/12/31 03:07:57;;;;;;;;;;;;;;;-5.22;96.81;92026.09;1063454;55;20189;-83
2020/12/31 03:08:57;;;;;;;;;;;;;;;-5.24;97.07;92032.72;1063325;55;20161;-84
2020/12/31 03:09:58;;;;;;;;;;;;;;;-5.26;96.57;92027.13;1063435;55;20642;-85
2020/12/31 03:10:58;;;;;;;;;;;;;;;-5.28;96.78;92024.84;1067719;55;20153;-82
2020/12/31 03:11:59;;;;;;;;;;;;;;;-5.30;96.34;92024.44;1065655;55;20165;-81
2020/12/31 03:12:59;;;;;;;;;;;;;;;-5.24;96.91;92028.28;1061311;56;20267;-83
2020/12/31 03:14:00;;;;;;;;;;;;;;;-5.25;96.87;92016.34;1063417;55;21064;-82
2020/12/31 03:15:00;;;;;;;;;;;;;;;-5.25;96.48;92016.34;1065617;55;20597;-82
2020/12/31 03:16:01;;;;;;;;;;;;;;;-5.24;96.66;92023.06;1065715;55;20613;-83
2020/12/31 03:17:01;;;;;;;;;;;;;;;-5.09;97.73;92018.88;1065629;55;20181;-83
2020/12/31 03:18:02;;;;;;;;;;;;;;;-5.07;97.87;92020.03;1065625;55;20177;-83
2020/12/31 03:19:04;;;;;;;;;;;;;;;-5.07;97.78;92022.63;1067823;55;20679;-83
2020/12/31 03:20:05;;;;;;;;;;;;;;;-5.01;97.84;92022.34;1065529;55;20226;-83
2020/12/31 03:21:05;;;;;;;;;;;;;;;-4.94;98.52;92012.81;1063464;55;20154;-83
2020/12/31 03:22:09;;;;;;;;;;;;;;;-4.91;98.16;92021.81;1065600;55;21148;-83
2020/12/31 03:23:13;;;;;;;;;;;;;;;-4.84;99.37;92007.03;1063546;55;20151;-83
2020/12/31 03:24:13;;;;;;;;;;;;;;;-4.80;99.01;92014.91;1063696;55;20189;-83
2020/12/31 03:25:14;;;;;;;;;;;;;;;-4.74;98.87;92005.72;1065600;55;20189;-83
2020/12/31 03:26:14;;;;;;;;;;;;;;;-4.79;99.26;92011.19;1065583;55;20153;-86
2020/12/31 03:27:16;;;;;;;;;;;;;;;-4.75;98.72;92006.06;1065509;55;20185;-83
2020/12/31 03:28:16;;;;;;;;;;;;;;;-4.71;99.05;92009.47;1065378;55;21239;-82
2020/12/31 03:29:17;;;;;;;;;;;;;;;-4.75;99.19;92006.81;1065629;55;20585;-83
2020/12/31 03:30:17;;;;;;;;;;;;;;;-4.71;99.08;91996.44;1065637;55;20157;-83
2020/12/31 03:31:17;;;;;;;;;;;;;;;-4.71;98.85;91997.19;1067774;55;20664;-83
2020/12/31 03:32:18;;;;;;;;;;;;;;;-4.70;98.82;92003.91;1065479;55;20158;-83
2020/12/31 03:33:20;;;;;;;;;;;;;;;-4.69;98.56;91997.63;1065532;55;20263;-84
2020/12/31 03:34:21;;;;;;;;;;;;;;;-4.62;99.25;91997.72;1065584;55;20281;-83
2020/12/31 03:35:21;;;;;;;;;;;;;;;-4.68;99.27;91990.53;1065682;55;20189;-82
2020/12/31 03:36:22;;;;;;;;;;;;;;;-4.70;98.51;91990.87;1065582;55;20162;-81
2020/12/31 03:37:25;;;;;;;;;;;;;;;-4.70;99.27;91990.87;1063418;55;20251;-85
2020/12/31 03:38:26;;;;;;;;;;;;;;;-4.67;99.39;91995.41;1063530;55;20154;-83
2020/12/31 03:39:26;;;;;;;;;;;;;;;-4.69;98.94;91992.41;1063428;55;20254;-84
2020/12/31 03:40:27;;;;;;;;;;;;;;;-4.65;98.46;91989.84;1063415;55;20157;-84
2020/12/31 03:41:27;;;;;;;;;;;;;;;-4.61;98.41;91988.81;1065468;55;20184;-83
2020/12/31 03:42:28;;;;;;;;;;;;;;;-4.62;98.54;91987.28;1059170;56;20639;-83
2020/12/31 03:43:28;;;;;;;;;;;;;;;-4.63;98.47;91991.00;1061200;56;20153;-84
2020/12/31 03:44:29;;;;;;;;;;;;;;;-4.66;97.79;91986.47;1065527;55;20142;-84
2020/12/31 03:45:30;;;;;;;;;;;;;;;-4.61;98.44;91985.44;1067688;55;20166;-84
2020/12/31 03:46:30;;;;;;;;;;;;;;;-4.63;98.32;91983.19;1065540;55;20161;-82
2020/12/31 03:47:30;;;;;;;;;;;;;;;-4.61;98.42;91983.59;1063346;56;20162;-84
2020/12/31 03:48:31;;;;;;;;;;;;;;;-4.59;97.75;91972.81;1063111;56;20150;-82
2020/12/31 03:49:33;;;;;;;;;;;;;;;-4.56;97.61;91979.94;1061388;56;20185;-83
2020/12/31 03:50:33;;;;;;;;;;;;;;;-4.60;97.46;91974.66;1063467;55;20533;-83
2020/12/31 03:51:34;;;;;;;;;;;;;;;-4.51;97.90;91973.69;1063355;56;20262;-82
2020/12/31 03:52:34;;;;;;;;;;;;;;;-4.57;97.26;91975.81;1063129;56;20154;-84
2020/12/31 03:53:35;;;;;;;;;;;;;;;-4.57;97.22;91979.16;1063263;56;20153;-84
2020/12/31 03:54:35;;;;;;;;;;;;;;;-4.59;97.69;91976.16;1063158;56;20178;-83
2020/12/31 03:55:36;;;;;;;;;;;;;;;-4.60;97.51;91969.44;1065278;55;20165;-82
2020/12/31 03:56:36;;;;;;;;;;;;;;;-4.61;97.54;91969.78;1065572;55;20164;-84
2020/12/31 03:57:37;;;;;;;;;;;;;;;-4.57;97.92;91970.59;1063180;56;20170;-82
2020/12/31 03:58:37;;;;;;;;;;;;;;;-4.52;97.58;91966.94;1061224;56;20185;-83
2020/12/31 03:59:38;;;;;;;;;;;;;;;-4.59;97.26;91965.00;1061232;56;20154;-83
2020/12/31 04:00:38;;;;;;;;;;;;;;;-4.53;96.93;91963.59;1059097;56;20258;-82
2020/12/31 04:01:40;;;;;;;;;;;;;;;-4.61;96.63;91960.13;1061385;56;20314;-83
2020/12/31 04:02:41;;;;;;;;;;;;;;;-4.60;96.88;91956.41;1063526;56;20331;-84
2020/12/31 04:03:41;;;;;;;;;;;;;;;-4.61;96.11;91957.53;1066013;55;20173;-82
2020/12/31 04:04:42;;;;;;;;;;;;;;;-4.68;96.32;91962.63;1066059;55;20176;-83
2020/12/31 04:05:42;;;;;;;;;;;;;;;-4.71;96.91;91959.94;1061323;56;20267;-82
2020/12/31 04:06:43;;;;;;;;;;;;;;;-4.66;97.33;91952.59;1059090;56;20163;-83
2020/12/31 04:07:43;;;;;;;;;;;;;;;-4.69;97.06;91955.91;1063447;56;20201;-83
2020/12/31 04:08:44;;;;;;;;;;;;;;;-4.75;97.11;91959.13;1063359;56;20677;-84
2020/12/31 04:09:44;;;;;;;;;;;;;;;-4.74;97.80;91945.78;1059181;56;20186;-83
2020/12/31 04:10:45;;;;;;;;;;;;;;;-4.83;97.28;91947.84;1059072;56;20146;-83
2020/12/31 04:11:45;;;;;;;;;;;;;;;-4.83;97.31;91943.41;1061153;56;20170;-84
2020/12/31 04:12:45;;;;;;;;;;;;;;;-4.82;97.21;91951.97;1061250;56;20705;-84
2020/12/31 04:13:46;;;;;;;;;;;;;;;-4.89;97.45;91950.00;1063334;56;20567;-82
2020/12/31 04:14:48;;;;;;;;;;;;;;;-4.94;97.08;91941.72;1063232;56;20567;-83
2020/12/31 04:15:49;;;;;;;;;;;;;;;-4.91;97.09;91941.03;1061242;56;20180;-86
2020/12/31 04:16:50;;;;;;;;;;;;;;;-4.85;97.57;91934.41;1057126;56;20681;-83
2020/12/31 04:17:51;;;;;;;;;;;;;;;-4.83;97.13;91935.59;1061211;56;20173;-82
2020/12/31 04:18:51;;;;;;;;;;;;;;;-4.82;97.73;91937.09;1065658;55;20157;-82
2020/12/31 04:19:51;;;;;;;;;;;;;;;-4.84;97.01;91934.06;1061301;56;20146;-83
2020/12/31 04:20:52;;;;;;;;;;;;;;;-4.87;97.09;91929.56;1061188;56;20261;-83
2020/12/31 04:21:53;;;;;;;;;;;;;;;-4.92;96.54;91931.69;1061254;56;20254;-84
2020/12/31 04:22:53;;;;;;;;;;;;;;;-4.97;96.90;91931.97;1061266;56;20166;-84
2020/12/31 04:23:54;;;;;;;;;;;;;;;-4.98;96.64;91923.41;1063383;56;20248;-84
2020/12/31 04:24:54;;;;;;;;;;;;;;;-5.03;97.06;91926.31;1065922;55;20618;-84
2020/12/31 04:25:54;;;;;;;;;;;;;;;-5.04;96.65;91924.06;1063311;56;20168;-84
2020/12/31 04:26:55;;;;;;;;;;;;;;;-5.03;97.04;91923.72;1063450;56;20189;-83
2020/12/31 04:27:56;;;;;;;;;;;;;;;-4.99;96.93;91921.16;1065758;55;20172;-84
2020/12/31 04:28:57;;;;;;;;;;;;;;;-5.01;96.85;91913.69;1063354;56;20162;-83
2020/12/31 04:29:58;;;;;;;;;;;;;;;-5.01;97.56;91918.88;1061224;56;20258;-82
2020/12/31 04:30:59;;;;;;;;;;;;;;;-4.98;98.09;91907.03;1065720;55;20706;-84
2020/12/31 04:32:00;;;;;;;;;;;;;;;-4.98;97.41;91914.84;1063559;55;20177;-85
2020/12/31 04:33:00;;;;;;;;;;;;;;;-4.99;97.46;91913.34;1063419;56;20195;-83
2020/12/31 04:34:01;;;;;;;;;;;;;;;-4.95;97.81;91914.91;1061264;56;20162;-82
2020/12/31 04:35:01;;;;;;;;;;;;;;;-4.95;96.90;91906.34;1061238;56;20548;-83
2020/12/31 04:36:02;;;;;;;;;;;;;;;-4.99;97.10;91910.75;1061150;56;20567;-84
2020/12/31 04:37:04;;;;;;;;;;;;;;;-5.05;97.20;91912.88;1065668;55;20292;-83
2020/12/31 04:38:04;;;;;;;;;;;;;;;-5.01;97.43;91910.31;1068339;55;20184;-84
2020/12/31 04:39:05;;;;;;;;;;;;;;;-5.03;97.39;91910.69;1063867;55;20180;-82
2020/12/31 04:40:07;;;;;;;;;;;;;;;-5.04;97.18;91916.25;1061502;55;20761;-83
2020/12/31 04:41:11;;;;;;;;;;;;;;;-5.18;96.10;91907.09;1063770;55;20706;-86
2020/12/31 04:42:12;;;;;;;;;;;;;;;-5.18;96.83;91907.09;1066000;55;20257;-85
2020/12/31 04:43:13;;;;;;;;;;;;;;;-5.17;97.22;91911.22;1065977;55;20250;-81
2020/12/31 04:44:15;;;;;;;;;;;;;;;-5.17;96.94;91905.25;1065887;55;20165;-84
2020/12/31 04:45:16;;;;;;;;;;;;;;;-5.26;96.72;91910.69;1063642;55;20213;-81
2020/12/31 04:46:20;;;;;;;;;;;;;;;-5.16;96.90;91904.91;1061624;55;20213;-82
2020/12/31 04:47:21;;;;;;;;;;;;;;;-5.15;96.72;91905.66;1059964;56;20178;-82
2020/12/31 04:48:26;;;;;;;;;;;;;;;-5.16;96.76;91909.34;1059304;56;20146;-83
2020/12/31 04:49:28;;;;;;;;;;;;;;;-5.09;96.87;91904.28;1063387;55;20609;-83
2020/12/31 04:50:33;;;;;;;;;;;;;;;-5.15;97.11;91903.03;1065786;55;20157;-83
2020/12/31 04:51:35;;;;;;;;;;;;;;;-5.12;96.85;91899.75;1065859;55;20638;-83
2020/12/31 04:52:37;;;;;;;;;;;;;;;-5.03;97.87;91902.12;1065928;55;20222;-84
2020/12/31 04:53:38;;;;;;;;;;;;;;;-5.07;97.82;91902.06;1065828;55;20173;-84
2020/12/31 04:54:39;;;;;;;;;;;;;;;-5.17;97.54;91892.97;1063619;55;20626;-83
2020/12/31 04:55:41;;;;;;;;;;;;;;;-5.09;97.42;91904.28;1063679;55;20162;-83
2020/12/31 04:56:42;;;;;;;;;;;;;;;-5.03;97.17;91907.34;1063677;55;20161;-86
2020/12/31 04:57:44;;;;;;;;;;;;;;;-4.95;96.74;91901.13;1065906;55;20688;-82
2020/12/31 04:58:44;;;;;;;;;;;;;;;-5.05;96.87;91907.66;1065819;55;20189;-83
2020/12/31 04:59:45;;;;;;;;;;;;;;;-5.02;96.63;91904.38;1061352;56;20170;-84
2020/12/31 05:00:46;;;;;;;;;;;;;;;-5.08;97.19;91897.94;1061524;56;20245;-83
2020/12/31 05:01:46;;;;;;;;;;;;;;;-5.07;97.26;91907.28;1065804;55;20247;-84
2020/12/31 05:02:53;;;;;;;;;;;;;;;-5.07;97.26;91905.41;1068013;55;20177;-83
2020/12/31 05:03:54;;;;;;;;;;;;;;;-5.13;96.71;91896.41;1063740;55;20166;-83
2020/12/31 05:04:54;;;;;;;;;;;;;;;-5.10;97.07;91905.34;1063789;55;20181;-82
2020/12/31 05:05:56;;;;;;;;;;;;;;;-5.18;96.78;91909.72;1065743;55;20258;-83
2020/12/31 05:06:57;;;;;;;;;;;;;;;-5.20;96.70;91906.69;1065735;55;20254;-83
2020/12/31 05:07:58;;;;;;;;;;;;;;;-5.23;96.52;91904.75;1067960;55;20617;-83
2020/12/31 05:09:12;;;;;;;;;;;;;;;-5.18;96.78;91909.72;1065824;55;20580;-85
2020/12/31 05:10:13;;;;;;;;;;;;;;;-5.30;96.30;91915.06;1064110;55;20585;-84
2020/12/31 05:11:13;;;;;;;;;;;;;;;-5.30;96.17;91909.13;1061508;56;20154;-83
2020/12/31 05:12:14;;;;;;;;;;;;;;;-5.25;96.64;91911.44;1061485;56;20650;-83
2020/12/31 05:13:14;;;;;;;;;;;;;;;-5.22;96.42;91910.75;1061447;56;20242;-82
2020/12/31 05:14:27;;;;;;;;;;;;;;;-5.15;97.69;91916.81;1061555;56;20181;-84
2020/12/31 05:15:41;;;;;;;;;;;;;;;-5.15;97.15;91905.66;1064056;55;20642;-84
2020/12/31 05:16:41;;;;;;;;;;;;;;;-5.12;97.19;91907.56;1064166;55;20192;-84
2020/12/31 05:17:42;;;;;;;;;;;;;;;-5.09;96.40;91909.47;1063753;55;20166;-83
2020/12/31 05:18:42;;;;;;;;;;;;;;;-5.17;96.19;91911.22;1063636;55;20154;-84